Fort Larned National History, Kansas
Current Conditions -  °F | °C
As of 3:35 PM on Saturday 20 Dec 2014 (Local Time) from KGBD Reporting Station
Clear Clear  
Wind Chill: 52°   Ceiling: Unl
Heat Index: 52°   Visibility: 10mi
Dew Point: 39°   Wind: 15mph
Humidity: 62%   Direction: 190°S
Pressure: 30.01"   Gusts: NA
Location:  38.1779°N, 99.1746°W
Report Text: KGBD 202135Z AUTO 19013KT 10SM CLR 11/04 A3001 RMK AO1
Loading
Personal Weather Stations






























Interactive Weather Map New forecast layout! Learn more

10-Day Weather Forecast

Advertisements
Track Severe Weather on mobile